Time;durP1;ratioP1;P1;durP2;ratioP2;P2;SDS_P1;SDS_P2;PMS_P1;PMS_P2;Temp;Humidity;BMP_temperature;BMP_pressure;BME280_temperature;BME280_humidity;BME280_pressure;Samples;Min_cycle;Max_cycle;Signal;HPM_P1;HPM_P2
2021/12/04 00:00:14;;;;;;;;;;;;;;;21.39;26.34;94714.78;1039300;28;1167;-63
2021/12/04 00:00:47;;;;;;;;;;;;;;;21.38;26.55;94710.56;1040930;28;1140;-63
2021/12/04 00:01:22;;;;;;;;;;;;;;;21.37;26.75;94696.59;1044153;28;1418;-63
2021/12/04 00:01:53;;;;;;;;;;;;;;;21.37;26.71;94693.97;1043559;28;1686;-63
2021/12/04 00:02:23;;;;;;;;;;;;;;;21.37;26.07;94693.97;1044403;28;1095;-63
2021/12/04 00:02:54;;;;;;;;;;;;;;;21.36;26.35;94686.38;1039635;28;1876;-63
2021/12/04 00:03:24;;;;;;;;;;;;;;;21.36;26.45;94684.53;1035809;28;1103;-63
2021/12/04 00:03:54;;;;;;;;;;;;;;;21.37;26.24;94688.69;1036472;28;1220;-63
2021/12/04 00:04:30;;;;;;;;;;;;;;;21.37;26.52;94687.94;1035700;28;1344;-63
2021/12/04 00:05:02;;;;;;;;;;;;;;;21.37;26.62;94691.34;1043655;28;2332;-63
2021/12/04 00:05:32;;;;;;;;;;;;;;;21.36;26.35;94692.44;1044619;28;1123;-63
2021/12/04 00:06:07;;;;;;;;;;;;;;;21.37;26.30;94693.22;1044522;28;1064;-63
2021/12/04 00:06:39;;;;;;;;;;;;;;;21.37;26.52;94687.94;1043888;28;1763;-63
2021/12/04 00:07:10;;;;;;;;;;;;;;;21.36;26.33;94687.16;1040656;28;1447;-63
2021/12/04 00:07:41;;;;;;;;;;;;;;;21.36;26.45;94673.19;1043956;28;1923;-63
2021/12/04 00:08:11;;;;;;;;;;;;;;;21.36;26.50;94678.47;1036981;28;1977;-63
2021/12/04 00:08:44;;;;;;;;;;;;;;;21.36;26.08;94681.09;1037699;28;1072;-63
2021/12/04 00:09:17;;;;;;;;;;;;;;;21.36;26.90;94678.47;1036819;28;1212;-63
2021/12/04 00:09:50;;;;;;;;;;;;;;;21.37;26.71;94674.75;1037505;28;1202;-64
2021/12/04 00:10:26;;;;;;;;;;;;;;;21.36;26.59;94673.19;1040646;28;1588;-63
2021/12/04 00:10:56;;;;;;;;;;;;;;;21.37;26.96;94666.84;1040254;28;1396;-63
2021/12/04 00:11:27;;;;;;;;;;;;;;;21.37;26.68;94672.88;1042555;28;1175;-62
2021/12/04 00:12:05;;;;;;;;;;;;;;;21.35;26.50;94661.88;1042427;28;1126;-63
2021/12/04 00:12:36;;;;;;;;;;;;;;;21.35;26.07;94656.59;1038356;28;1080;-63
2021/12/04 00:13:06;;;;;;;;;;;;;;;21.36;26.69;94649.47;1036754;28;1950;-63
2021/12/04 00:13:36;;;;;;;;;;;;;;;21.35;27.24;94653.94;1039803;28;1195;-63
2021/12/04 00:14:07;;;;;;;;;;;;;;;21.36;26.25;94654.75;1040949;28;1089;-63
2021/12/04 00:14:37;;;;;;;;;;;;;;;21.35;26.64;94653.19;1044703;28;1125;-63
2021/12/04 00:15:08;;;;;;;;;;;;;;;21.35;26.30;94638.13;1045085;28;1056;-63
2021/12/04 00:15:38;;;;;;;;;;;;;;;21.34;26.56;94635.81;1044804;28;1044;-63
2021/12/04 00:16:09;;;;;;;;;;;;;;;21.35;26.01;94640.03;1043647;28;1442;-63
2021/12/04 00:16:39;;;;;;;;;;;;;;;21.34;26.51;94641.88;1038801;28;1681;-63
2021/12/04 00:17:09;;;;;;;;;;;;;;;21.33;26.78;94644.81;1030912;28;1332;-63
2021/12/04 00:17:40;;;;;;;;;;;;;;;21.35;26.94;94655.84;1031388;28;2167;-63
2021/12/04 00:18:10;;;;;;;;;;;;;;;21.34;26.48;94639.25;1026164;28;2207;-63
2021/12/04 00:18:40;;;;;;;;;;;;;;;21.36;26.72;94644.19;1035034;28;1112;-63
2021/12/04 00:19:11;;;;;;;;;;;;;;;21.35;26.28;94637.38;1040610;28;875;-63
2021/12/04 00:19:41;;;;;;;;;;;;;;;21.34;26.49;94636.59;1041422;28;1357;-63
2021/12/04 00:20:12;;;;;;;;;;;;;;;21.34;26.75;94627.91;1044825;28;1057;-63
2021/12/04 00:20:42;;;;;;;;;;;;;;;21.34;26.20;94631.31;1043807;28;1233;-63
2021/12/04 00:21:12;;;;;;;;;;;;;;;21.34;26.93;94641.88;1043636;28;1044;-63
2021/12/04 00:21:43;;;;;;;;;;;;;;;21.34;26.38;94641.09;1043795;28;1194;-63
2021/12/04 00:22:13;;;;;;;;;;;;;;;21.32;26.59;94633.50;1041490;28;1545;-63
2021/12/04 00:22:43;;;;;;;;;;;;;;;21.33;26.61;94635.03;1043210;28;1844;-63
2021/12/04 00:23:14;;;;;;;;;;;;;;;21.33;26.47;94636.91;1041187;28;1565;-63
2021/12/04 00:23:44;;;;;;;;;;;;;;;21.33;26.43;94640.31;1043806;28;1178;-63
2021/12/04 00:24:15;;;;;;;;;;;;;;;21.33;26.81;94636.91;1044185;28;1115;-63
2021/12/04 00:24:45;;;;;;;;;;;;;;;21.34;26.71;94647.16;1044607;28;1210;-63
2021/12/04 00:25:15;;;;;;;;;;;;;;;21.34;26.26;94649.00;1045085;28;952;-63
2021/12/04 00:25:46;;;;;;;;;;;;;;;21.34;26.11;94646.34;1040462;28;1175;-63
2021/12/04 00:26:16;;;;;;;;;;;;;;;21.34;26.63;94636.59;1040538;28;1123;-63
2021/12/04 00:26:46;;;;;;;;;;;;;;;21.33;26.58;94642.94;1036369;28;1167;-64
2021/12/04 00:27:17;;;;;;;;;;;;;;;21.34;26.10;94638.44;1040707;28;1245;-64
2021/12/04 00:27:47;;;;;;;;;;;;;;;21.33;26.58;94635.03;1042820;28;1844;-63
2021/12/04 00:28:17;;;;;;;;;;;;;;;21.33;26.45;94621.84;1040167;28;2041;-63
2021/12/04 00:28:48;;;;;;;;;;;;;;;21.33;26.96;94615.81;1043969;28;2484;-64
2021/12/04 00:29:18;;;;;;;;;;;;;;;21.34;26.90;94620.00;1043872;28;1142;-63
2021/12/04 00:29:49;;;;;;;;;;;;;;;21.34;26.83;94620.00;1039691;28;1918;-63
2021/12/04 00:30:19;;;;;;;;;;;;;;;21.35;26.60;94624.19;1036260;28;771;-63
2021/12/04 00:30:50;;;;;;;;;;;;;;;21.35;26.87;94626.84;1039959;28;1210;-64
2021/12/04 00:31:20;;;;;;;;;;;;;;;21.34;26.52;94625.28;1039512;28;1400;-64
2021/12/04 00:31:55;;;;;;;;;;;;;;;21.33;26.51;94624.50;1040425;28;1254;-64
2021/12/04 00:33:12;;;;;;;;;;;;;;;21.33;26.50;94605.28;1042991;28;1869;-64
2021/12/04 00:33:45;;;;;;;;;;;;;;;21.33;26.83;94598.13;1042784;28;1170;-63
2021/12/04 00:34:15;;;;;;;;;;;;;;;21.33;26.71;94598.13;1044637;28;1367;-64
2021/12/04 00:34:52;;;;;;;;;;;;;;;21.35;26.77;94605.75;1043852;28;1883;-62
2021/12/04 00:35:46;;;;;;;;;;;;;;;21.33;26.40;94605.28;1040720;28;1163;-64
2021/12/04 00:36:30;;;;;;;;;;;;;;;21.33;26.51;94603.41;1042121;28;1363;-63
2021/12/04 00:49:30;;;;;;;;;;;;;;;21.30;26.12;94587.44;1044802;28;1123;-64
2021/12/04 00:50:00;;;;;;;;;;;;;;;21.30;26.64;94592.69;1043254;28;1851;-64
2021/12/04 00:50:30;;;;;;;;;;;;;;;21.29;26.85;94585.88;1040347;28;1116;-64
2021/12/04 00:51:01;;;;;;;;;;;;;;;21.30;26.52;94582.94;1039979;28;1037;-64
2021/12/04 00:51:31;;;;;;;;;;;;;;;21.29;26.59;94586.66;1036383;28;1198;-64
2021/12/04 00:52:02;;;;;;;;;;;;;;;21.30;26.78;94585.56;1038609;28;1070;-64
2021/12/04 00:52:32;;;;;;;;;;;;;;;21.31;26.71;94589.00;1041847;28;1382;-64
2021/12/04 00:53:02;;;;;;;;;;;;;;;21.31;26.73;94589.75;1038180;28;1886;-65
2021/12/04 00:53:33;;;;;;;;;;;;;;;21.29;26.16;94588.53;1041478;28;1264;-64
2021/12/04 00:54:05;;;;;;;;;;;;;;;21.29;26.24;94585.88;1044651;28;1065;-64
2021/12/04 00:54:37;;;;;;;;;;;;;;;21.29;26.48;94581.38;1044866;28;1115;-64
2021/12/04 00:55:07;;;;;;;;;;;;;;;21.29;26.34;94580.63;1044970;28;1104;-64
2021/12/04 00:55:38;;;;;;;;;;;;;;;21.30;26.68;94580.31;1044674;28;1206;-64
2021/12/04 00:56:08;;;;;;;;;;;;;;;21.30;26.81;94577.66;1044522;28;1136;-64
2021/12/04 00:56:41;;;;;;;;;;;;;;;21.29;26.01;94576.09;1040310;28;1310;-64
2021/12/04 00:57:12;;;;;;;;;;;;;;;21.30;27.02;94575.03;1039981;28;1300;-64
2021/12/04 00:57:44;;;;;;;;;;;;;;;21.31;26.60;94573.19;1041086;28;1498;-64
2021/12/04 00:58:14;;;;;;;;;;;;;;;21.29;26.32;94564.81;1039628;28;1831;-64
2021/12/04 00:58:44;;;;;;;;;;;;;;;21.30;26.20;94566.34;1044720;28;1063;-64
2021/12/04 00:59:15;;;;;;;;;;;;;;;21.29;26.69;94565.56;1044043;28;808;-64
2021/12/04 00:59:45;;;;;;;;;;;;;;;21.29;26.46;94565.56;1040576;28;1178;-64
2021/12/04 01:00:15;;;;;;;;;;;;;;;21.29;26.71;94570.06;1035558;28;1466;-64
2021/12/04 01:00:46;;;;;;;;;;;;;;;21.29;26.72;94570.06;1036482;28;1511;-64
2021/12/04 01:01:16;;;;;;;;;;;;;;;21.30;26.75;94568.97;1034923;28;1372;-64
2021/12/04 01:01:47;;;;;;;;;;;;;;;21.30;26.86;94563.69;1035121;28;1726;-64
2021/12/04 01:02:18;;;;;;;;;;;;;;;21.29;26.90;94572.72;1036238;28;824;-64
2021/12/04 01:02:48;;;;;;;;;;;;;;;21.29;26.10;94565.56;1035830;28;1171;-64
2021/12/04 01:03:19;;;;;;;;;;;;;;;21.30;26.50;94571.63;1039016;28;1885;-64
2021/12/04 01:03:50;;;;;;;;;;;;;;;21.28;26.53;94576.41;1040292;28;1478;-64
2021/12/04 01:04:22;;;;;;;;;;;;;;;21.28;27.01;94569.28;1044565;28;827;-64
2021/12/04 01:04:52;;;;;;;;;;;;;;;21.29;26.72;94575.34;1042635;28;1183;-64
2021/12/04 01:05:23;;;;;;;;;;;;;;;21.29;26.90;94572.72;1043721;28;1703;-64
2021/12/04 01:05:53;;;;;;;;;;;;;;;21.29;26.94;94570.06;1042053;28;1081;-64
2021/12/04 01:06:23;;;;;;;;;;;;;;;21.27;26.46;94573.00;1040491;28;1118;-64
2021/12/04 01:06:54;;;;;;;;;;;;;;;21.28;26.60;94566.66;1036407;28;1286;-64
2021/12/04 01:07:25;;;;;;;;;;;;;;;21.28;26.78;94569.28;1040340;28;1361;-64
2021/12/04 01:07:55;;;;;;;;;;;;;;;21.28;26.65;94569.28;1040201;28;1166;-64
2021/12/04 01:08:25;;;;;;;;;;;;;;;21.29;26.61;94576.09;1040527;28;1985;-64
2021/12/04 01:08:55;;;;;;;;;;;;;;;21.28;26.37;94582.47;1040399;28;1120;-64
2021/12/04 01:09:26;;;;;;;;;;;;;;;21.28;26.42;94573.78;1036322;28;1455;-64
2021/12/04 01:09:56;;;;;;;;;;;;;;;21.28;26.96;94573.78;1036056;28;1171;-64
2021/12/04 01:10:27;;;;;;;;;;;;;;;21.28;26.78;94579.84;1040943;28;1135;-64
2021/12/04 01:10:57;;;;;;;;;;;;;;;21.28;26.13;94579.84;1039839;28;1174;-64
2021/12/04 01:11:27;;;;;;;;;;;;;;;21.27;26.40;94578.25;1036393;28;1234;-64
2021/12/04 01:11:57;;;;;;;;;;;;;;;21.28;26.21;94581.69;1040403;28;1108;-64
2021/12/04 01:12:28;;;;;;;;;;;;;;;21.27;26.63;94578.25;1036370;28;1179;-64
2021/12/04 01:13:00;;;;;;;;;;;;;;;21.25;26.33;94583.06;1040413;28;1242;-64
2021/12/04 01:13:31;;;;;;;;;;;;;;;21.27;26.61;94585.41;1046165;28;1303;-64
2021/12/04 01:14:02;;;;;;;;;;;;;;;21.27;26.72;94582.78;1044681;28;1132;-64
2021/12/04 01:14:32;;;;;;;;;;;;;;;21.28;26.34;94589.59;1038919;28;1638;-64
2021/12/04 01:15:03;;;;;;;;;;;;;;;21.27;26.56;94586.16;1041789;28;1182;-64
2021/12/04 01:15:33;;;;;;;;;;;;;;;21.26;26.53;94589.13;1040558;28;1462;-64
2021/12/04 01:16:04;;;;;;;;;;;;;;;21.26;26.74;94589.13;1040322;28;1366;-64
2021/12/04 01:16:34;;;;;;;;;;;;;;;21.25;26.34;94588.34;1040254;28;1488;-64
2021/12/04 01:17:05;;;;;;;;;;;;;;;21.26;26.81;94581.22;1040496;28;2133;-64
2021/12/04 01:17:35;;;;;;;;;;;;;;;21.25;26.33;94584.91;1042545;28;1407;-64
2021/12/04 01:18:05;;;;;;;;;;;;;;;21.25;26.40;94582.28;1040291;28;1198;-64
2021/12/04 01:18:36;;;;;;;;;;;;;;;21.25;26.32;94590.97;1044726;28;1174;-64
2021/12/04 01:19:06;;;;;;;;;;;;;;;21.25;26.71;94590.19;1044663;28;1065;-64
2021/12/04 01:19:37;;;;;;;;;;;;;;;21.25;26.26;94582.28;1041178;28;1356;-64
2021/12/04 01:20:07;;;;;;;;;;;;;;;21.25;26.34;94582.28;1040102;28;1090;-63
2021/12/04 01:20:39;;;;;;;;;;;;;;;21.25;26.70;94582.28;1036233;28;1610;-64
2021/12/04 01:21:10;;;;;;;;;;;;;;;21.24;26.24;94578.88;1034336;28;1082;-64
2021/12/04 01:21:40;;;;;;;;;;;;;;;21.24;26.71;94584.16;1034247;28;1151;-64
2021/12/04 01:22:11;;;;;;;;;;;;;;;21.25;26.63;94579.66;1036481;28;1094;-64
2021/12/04 01:22:41;;;;;;;;;;;;;;;21.24;26.47;94580.75;1040401;28;1206;-64
2021/12/04 01:23:12;;;;;;;;;;;;;;;21.24;26.08;94578.88;1039924;28;2304;-64
2021/12/04 01:23:42;;;;;;;;;;;;;;;21.23;26.14;94587.88;1042670;28;1012;-64
2021/12/04 01:24:13;;;;;;;;;;;;;;;21.23;26.14;94592.34;1040760;28;1438;-64
2021/12/04 01:24:43;;;;;;;;;;;;;;;21.22;25.93;94607.41;1037318;28;1194;-64
2021/12/04 01:25:14;;;;;;;;;;;;;;;21.24;26.46;94613.16;1040515;28;783;-64
2021/12/04 01:25:44;;;;;;;;;;;;;;;21.24;26.15;94599.19;1040538;28;1147;-64
2021/12/04 01:26:15;;;;;;;;;;;;;;;21.24;26.63;94599.19;1040743;28;1134;-64
2021/12/04 01:26:45;;;;;;;;;;;;;;;21.25;26.41;94579.66;1043606;28;1148;-64
2021/12/04 01:27:16;;;;;;;;;;;;;;;21.24;26.14;94565.72;1040583;28;1268;-64
2021/12/04 01:27:46;;;;;;;;;;;;;;;21.25;26.58;94574.38;1036430;28;1207;-64
2021/12/04 01:28:17;;;;;;;;;;;;;;;21.25;26.75;94577.00;1035313;28;1965;-64
2021/12/04 01:28:47;;;;;;;;;;;;;;;21.25;26.70;94584.91;1032276;28;1203;-64
2021/12/04 01:29:18;;;;;;;;;;;;;;;21.24;26.26;94578.88;1034375;28;1682;-64
2021/12/04 01:29:48;;;;;;;;;;;;;;;21.24;26.32;94584.16;1036225;28;1591;-64
2021/12/04 01:30:19;;;;;;;;;;;;;;;21.26;26.65;94592.53;1036822;28;983;-64
2021/12/04 01:30:49;;;;;;;;;;;;;;;21.23;26.06;94587.88;1044108;28;1135;-64
2021/12/04 01:31:19;;;;;;;;;;;;;;;21.23;26.50;94582.59;1044866;28;1218;-64
2021/12/04 01:31:50;;;;;;;;;;;;;;;21.22;26.09;94570.50;1040434;28;1238;-64
2021/12/04 01:32:20;;;;;;;;;;;;;;;21.23;26.33;94587.06;1040236;28;1115;-64
2021/12/04 01:32:50;;;;;;;;;;;;;;;21.23;26.34;94589.72;1040424;28;1166;-64
2021/12/04 01:33:21;;;;;;;;;;;;;;;21.23;26.09;94581.81;1038894;28;1825;-64
2021/12/04 01:33:51;;;;;;;;;;;;;;;21.23;25.87;94587.06;1038800;28;1132;-64
2021/12/04 01:34:22;;;;;;;;;;;;;;;21.21;25.79;94589.25;1032476;28;1496;-64
2021/12/04 01:34:54;;;;;;;;;;;;;;;21.22;26.49;94585.53;1035666;28;1376;-64
2021/12/04 01:35:25;;;;;;;;;;;;;;;21.23;26.61;94581.81;1036704;28;1210;-64
2021/12/04 01:35:55;;;;;;;;;;;;;;;21.23;26.49;94584.44;1038477;28;1455;-64
2021/12/04 01:36:25;;;;;;;;;;;;;;;21.24;26.94;94596.56;1036949;28;1020;-64
2021/12/04 01:36:55;;;;;;;;;;;;;;;21.24;26.35;94589.44;1034500;28;1391;-64
2021/12/04 01:37:26;;;;;;;;;;;;;;;21.25;26.43;94592.81;1033934;28;1245;-64
2021/12/04 01:37:56;;;;;;;;;;;;;;;21.24;26.76;94599.97;1035555;28;1135;-64
2021/12/04 01:38:27;;;;;;;;;;;;;;;21.25;26.10;94584.91;1034951;28;2111;-64
2021/12/04 01:38:57;;;;;;;;;;;;;;;21.24;26.10;94581.53;1040510;28;1061;-64
2021/12/04 01:39:27;;;;;;;;;;;;;;;21.25;25.93;94579.66;1040355;28;1158;-64
2021/12/04 01:39:58;;;;;;;;;;;;;;;21.23;26.32;94582.59;1040720;28;1097;-64
2021/12/04 01:40:28;;;;;;;;;;;;;;;21.24;26.94;94584.16;1043670;28;2184;-64
2021/12/04 01:40:58;;;;;;;;;;;;;;;21.24;26.29;94583.38;1044284;28;1052;-64
2021/12/04 01:41:29;;;;;;;;;;;;;;;21.23;26.35;94590.50;1044528;28;1139;-64
2021/12/04 01:41:59;;;;;;;;;;;;;;;21.23;26.12;94598.41;1044379;28;1061;-64
2021/12/04 01:42:32;;;;;;;;;;;;;;;21.22;26.41;94593.44;1039357;28;2152;-64
2021/12/04 01:43:02;;;;;;;;;;;;;;;21.24;26.39;94580.75;1040155;28;1190;-64
2021/12/04 01:43:33;;;;;;;;;;;;;;;21.23;26.62;94581.81;1043084;28;2164;-64
2021/12/04 01:44:03;;;;;;;;;;;;;;;21.24;27.08;94588.66;1039616;28;1245;-64
2021/12/04 01:44:34;;;;;;;;;;;;;;;21.23;26.23;94579.16;1038037;28;1251;-64
2021/12/04 01:45:05;;;;;;;;;;;;;;;21.24;26.03;94583.38;1039869;28;1455;-64
2021/12/04 01:45:35;;;;;;;;;;;;;;;21.22;26.22;94588.19;1040157;28;1432;-64
2021/12/04 01:46:06;;;;;;;;;;;;;;;21.23;26.51;94587.06;1038926;28;1219;-64
2021/12/04 01:46:36;;;;;;;;;;;;;;;21.23;26.21;94587.06;1042449;28;1127;-64
2021/12/04 01:47:10;;;;;;;;;;;;;;;21.23;26.57;94584.44;1038644;28;1410;-64
2021/12/04 01:47:41;;;;;;;;;;;;;;;21.24;26.97;94578.09;1041088;28;1139;-64
2021/12/04 01:48:11;;;;;;;;;;;;;;;21.21;26.39;94566.31;1042432;28;1934;-64
2021/12/04 01:48:41;;;;;;;;;;;;;;;21.22;26.54;94565.25;1036083;28;1946;-64
2021/12/04 01:49:12;;;;;;;;;;;;;;;21.23;26.76;94566.00;1042564;28;784;-64
2021/12/04 01:49:43;;;;;;;;;;;;;;;21.23;26.24;94561.50;1044593;28;1024;-65
2021/12/04 01:50:13;;;;;;;;;;;;;;;21.23;26.42;94558.09;1044114;28;1460;-64
2021/12/04 01:50:43;;;;;;;;;;;;;;;21.23;26.62;94555.47;1040018;28;1369;-64
2021/12/04 01:51:14;;;;;;;;;;;;;;;21.23;26.43;94550.19;1040181;28;713;-64
2021/12/04 01:51:44;;;;;;;;;;;;;;;21.23;26.33;94552.81;1040572;28;1128;-64
2021/12/04 01:52:17;;;;;;;;;;;;;;;21.23;26.26;94544.91;1040382;28;734;-64
2021/12/04 01:52:47;;;;;;;;;;;;;;;21.23;26.56;94542.28;1044454;28;1167;-64
2021/12/04 01:53:17;;;;;;;;;;;;;;;21.23;26.33;94534.38;1039192;28;1458;-64
2021/12/04 01:53:48;;;;;;;;;;;;;;;21.22;26.48;94536.25;1039473;28;1903;-63
2021/12/04 01:54:18;;;;;;;;;;;;;;;21.22;26.70;94533.63;1040042;28;1406;-64
2021/12/04 01:54:50;;;;;;;;;;;;;;;21.21;26.00;94526.78;1040373;28;1167;-64
2021/12/04 01:55:21;;;;;;;;;;;;;;;21.22;26.58;94530.19;1040143;28;1380;-64
2021/12/04 01:55:52;;;;;;;;;;;;;;;21.22;26.46;94527.56;1040098;28;1321;-64
2021/12/04 01:56:23;;;;;;;;;;;;;;;21.22;26.41;94527.56;1040468;28;1155;-64
2021/12/04 01:56:53;;;;;;;;;;;;;;;21.23;26.89;94521.19;1041614;28;1269;-64
2021/12/04 01:57:24;;;;;;;;;;;;;;;21.23;26.85;94523.84;1040313;28;1399;-64
2021/12/04 01:57:54;;;;;;;;;;;;;;;21.23;26.33;94526.47;1040303;28;1201;-64
2021/12/04 01:58:25;;;;;;;;;;;;;;;21.21;26.58;94520.72;1041827;28;1489;-63
2021/12/04 01:58:55;;;;;;;;;;;;;;;21.21;26.37;94513.59;1039361;28;1902;-64
2021/12/04 01:59:27;;;;;;;;;;;;;;;21.21;26.84;94508.34;1039767;28;1159;-64
2021/12/04 01:59:57;;;;;;;;;;;;;;;21.22;26.49;94509.13;1044502;28;1213;-64
2021/12/04 02:00:29;;;;;;;;;;;;;;;21.22;25.90;94503.84;1040488;28;1275;-64
2021/12/04 02:01:00;;;;;;;;;;;;;;;21.21;26.41;94505.69;1035022;28;1620;-64
2021/12/04 02:01:31;;;;;;;;;;;;;;;21.21;26.34;94510.19;1038705;28;1587;-64
2021/12/04 02:02:02;;;;;;;;;;;;;;;21.22;26.74;94506.47;1035562;28;1038;-64
2021/12/04 02:02:33;;;;;;;;;;;;;;;21.22;26.75;94501.22;1038126;28;1199;-64
2021/12/04 02:03:04;;;;;;;;;;;;;;;21.23;26.75;94500.13;1043916;28;1204;-64
2021/12/04 02:03:34;;;;;;;;;;;;;;;21.22;26.40;94491.44;1043850;28;1510;-64
2021/12/04 02:04:05;;;;;;;;;;;;;;;21.22;26.63;94494.09;1043937;28;2018;-64
2021/12/04 02:04:36;;;;;;;;;;;;;;;21.22;26.21;94486.19;1044773;28;1445;-64
2021/12/04 02:05:06;;;;;;;;;;;;;;;21.22;26.14;94485.41;1044939;28;1319;-64
2021/12/04 02:05:40;;;;;;;;;;;;;;;21.21;26.50;94489.09;1044452;28;1154;-64
2021/12/04 02:06:10;;;;;;;;;;;;;;;21.21;26.62;94489.09;1041614;28;1997;-64
2021/12/04 02:06:41;;;;;;;;;;;;;;;21.22;26.18;94488.81;1036466;28;1567;-64
2021/12/04 02:07:12;;;;;;;;;;;;;;;21.22;25.86;94495.94;1040531;28;1202;-64
2021/12/04 02:07:42;;;;;;;;;;;;;;;21.21;26.56;94489.88;1040069;28;1322;-64
2021/12/04 02:08:13;;;;;;;;;;;;;;;21.22;26.67;94490.66;1034756;28;1536;-64
2021/12/04 02:08:44;;;;;;;;;;;;;;;21.21;26.30;94492.53;1039327;28;1922;-64
2021/12/04 02:09:21;;;;;;;;;;;;;;;21.20;26.34;94498.88;1040196;28;896;-64
2021/12/04 02:09:52;;;;;;;;;;;;;;;21.21;26.50;94494.38;1037244;28;992;-64
2021/12/04 02:10:25;;;;;;;;;;;;;;;21.21;26.23;94486.47;1036285;28;1139;-64
2021/12/04 02:11:01;;;;;;;;;;;;;;;21.20;26.59;94492.84;1028218;28;1203;-63
2021/12/04 02:11:32;;;;;;;;;;;;;;;21.20;26.62;94490.97;1034552;28;1180;-64
2021/12/04 02:12:05;;;;;;;;;;;;;;;21.21;26.21;94487.25;1033220;28;1109;-64
2021/12/04 02:12:36;;;;;;;;;;;;;;;21.20;26.57;94477.03;1030119;28;1097;-64
2021/12/04 02:13:09;;;;;;;;;;;;;;;21.21;26.71;94481.97;1037144;28;920;-64
2021/12/04 02:13:40;;;;;;;;;;;;;;;21.21;26.83;94474.06;1039633;28;1168;-64
2021/12/04 02:14:13;;;;;;;;;;;;;;;21.21;26.29;94479.34;1038283;28;1864;-64
2021/12/04 02:14:43;;;;;;;;;;;;;;;21.21;26.64;94478.56;1044071;28;1229;-64
2021/12/04 02:15:14;;;;;;;;;;;;;;;21.21;26.44;94479.34;1041416;28;1401;-63
2021/12/04 02:15:44;;;;;;;;;;;;;;;21.21;26.54;94476.72;1032509;28;1184;-64
2021/12/04 02:16:16;;;;;;;;;;;;;;;21.21;26.56;94478.56;1033080;28;1503;-64
2021/12/04 02:16:46;;;;;;;;;;;;;;;21.22;26.48;94474.84;1033377;28;1625;-64
2021/12/04 02:17:16;;;;;;;;;;;;;;;21.21;26.47;94475.94;1035375;28;2245;-64
2021/12/04 02:17:49;;;;;;;;;;;;;;;21.21;26.56;94470.66;1036215;28;1487;-64
2021/12/04 02:18:21;;;;;;;;;;;;;;;21.22;26.72;94469.59;1041329;28;944;-64
2021/12/04 02:18:51;;;;;;;;;;;;;;;21.21;25.94;94471.44;1035347;28;1822;-64
2021/12/04 02:19:24;;;;;;;;;;;;;;;21.21;26.32;94460.91;1033582;28;1801;-64
2021/12/04 02:19:54;;;;;;;;;;;;;;;21.19;26.79;94463.06;1040520;28;965;-65
2021/12/04 02:20:27;;;;;;;;;;;;;;;21.21;26.36;94470.66;1045409;28;1139;-63
2021/12/04 02:20:58;;;;;;;;;;;;;;;21.21;26.61;94468.81;1046367;28;1205;-64
2021/12/04 02:21:31;;;;;;;;;;;;;;;21.21;26.82;94462.75;1048350;28;1409;-64
2021/12/04 02:22:01;;;;;;;;;;;;;;;21.20;26.46;94462.00;1044857;28;1112;-64
2021/12/04 02:22:32;;;;;;;;;;;;;;;21.21;26.47;94462.75;1041764;28;1273;-64
2021/12/04 02:23:03;;;;;;;;;;;;;;;21.21;26.84;94457.47;1040268;28;1111;-64
2021/12/04 02:23:34;;;;;;;;;;;;;;;21.21;26.39;94462.75;1038325;28;1144;-63
2021/12/04 02:24:10;;;;;;;;;;;;;;;21.21;26.92;94460.13;1037226;28;1889;-64
2021/12/04 02:24:48;;;;;;;;;;;;;;;21.21;26.74;94457.47;1036801;28;1140;-64
2021/12/04 02:25:34;;;;;;;;;;;;;;;21.21;25.91;94460.13;1036102;28;1206;-65
2021/12/04 02:26:21;;;;;;;;;;;;;;;21.20;26.31;94453.31;1036036;28;1338;-64
2021/12/04 02:26:52;;;;;;;;;;;;;;;21.19;26.49;94462.28;1031082;28;1371;-64
2021/12/04 02:27:22;;;;;;;;;;;;;;;21.20;26.65;94455.94;1036970;28;1340;-64
2021/12/04 02:27:53;;;;;;;;;;;;;;;21.19;26.35;94454.38;1035412;28;1216;-64
2021/12/04 02:28:23;;;;;;;;;;;;;;;21.19;26.26;94452.53;1027649;28;1910;-64
2021/12/04 02:28:55;;;;;;;;;;;;;;;21.20;26.35;94455.94;1033792;28;1886;-64
2021/12/04 02:29:25;;;;;;;;;;;;;;;21.19;26.79;94454.38;1036672;28;985;-64
2021/12/04 02:29:56;;;;;;;;;;;;;;;21.20;26.43;94456.72;1033582;28;1094;-64
2021/12/04 02:30:27;;;;;;;;;;;;;;;21.19;26.27;94455.16;1041212;28;1100;-64
2021/12/04 02:30:57;;;;;;;;;;;;;;;21.20;26.44;94458.56;1041385;28;1189;-64
2021/12/04 02:31:28;;;;;;;;;;;;;;;21.18;26.23;94464.16;1037463;28;1196;-64
2021/12/04 02:31:58;;;;;;;;;;;;;;;21.19;26.33;94467.56;1045256;28;1124;-64
2021/12/04 02:32:30;;;;;;;;;;;;;;;21.19;26.52;94467.56;1044964;28;1192;-63
2021/12/04 02:33:01;;;;;;;;;;;;;;;21.18;26.64;94466.00;1040193;28;1131;-64
2021/12/04 02:33:31;;;;;;;;;;;;;;;21.20;26.35;94471.75;1037932;28;1163;-64
2021/12/04 02:34:01;;;;;;;;;;;;;;;21.19;26.70;94470.97;1039873;28;2007;-64
2021/12/04 02:34:32;;;;;;;;;;;;;;;21.20;26.82;94475.16;1038436;28;1128;-64
2021/12/04 02:35:02;;;;;;;;;;;;;;;21.20;26.70;94474.38;1040896;28;1231;-64
2021/12/04 02:35:33;;;;;;;;;;;;;;;21.19;26.35;94476.25;1042572;28;1245;-64
2021/12/04 02:36:05;;;;;;;;;;;;;;;21.20;26.74;94469.91;1043720;28;1973;-64
2021/12/04 02:36:35;;;;;;;;;;;;;;;21.20;26.78;94471.75;1045314;28;1114;-64
2021/12/04 02:37:06;;;;;;;;;;;;;;;21.19;26.49;94470.97;1044629;28;1395;-64
2021/12/04 02:37:38;;;;;;;;;;;;;;;21.18;26.23;94469.44;1045646;28;1210;-64
2021/12/04 02:38:08;;;;;;;;;;;;;;;21.19;26.42;94475.47;1044974;28;1536;-64
2021/12/04 02:38:39;;;;;;;;;;;;;;;21.18;26.57;94464.16;1038740;28;1363;-63
2021/12/04 02:39:10;;;;;;;;;;;;;;;21.19;26.22;94464.91;1035285;28;1866;-64
2021/12/04 02:39:44;;;;;;;;;;;;;;;21.20;25.81;94461.22;1034484;28;1422;-64
2021/12/04 02:40:17;;;;;;;;;;;;;;;21.19;26.02;94462.28;1026581;28;982;-64
2021/12/04 02:40:48;;;;;;;;;;;;;;;21.19;26.34;94465.69;1039468;28;1302;-64
2021/12/04 02:41:19;;;;;;;;;;;;;;;21.19;26.65;94459.66;1042335;28;868;-64
2021/12/04 02:41:49;;;;;;;;;;;;;;;21.19;26.83;94459.66;1045066;28;1383;-64
2021/12/04 02:42:21;;;;;;;;;;;;;;;21.19;26.70;94460.44;1044662;28;1115;-64
2021/12/04 02:42:51;;;;;;;;;;;;;;;21.20;26.63;94461.22;1040332;28;1837;-64
2021/12/04 02:43:21;;;;;;;;;;;;;;;21.19;26.22;94457.78;1040577;28;1044;-63
2021/12/04 02:43:52;;;;;;;;;;;;;;;21.19;26.59;94457.00;1036952;28;1500;-64
2021/12/04 02:44:24;;;;;;;;;;;;;;;21.19;26.82;94457.78;1036603;28;2359;-64
2021/12/04 02:44:54;;;;;;;;;;;;;;;21.20;26.43;94461.22;1045340;28;1065;-64
2021/12/04 02:45:24;;;;;;;;;;;;;;;21.19;26.62;94454.38;1045235;28;1135;-64
2021/12/04 02:45:55;;;;;;;;;;;;;;;21.19;26.50;94457.00;1045576;28;1146;-64
2021/12/04 02:46:25;;;;;;;;;;;;;;;21.20;26.64;94458.56;1042385;28;1462;-64
2021/12/04 02:46:55;;;;;;;;;;;;;;;21.18;26.34;94466.00;1040993;28;1427;-64
2021/12/04 02:47:26;;;;;;;;;;;;;;;21.18;26.34;94464.16;1039230;28;1439;-63
2021/12/04 02:47:57;;;;;;;;;;;;;;;21.19;26.69;94464.91;1041319;28;1069;-63
2021/12/04 02:48:27;;;;;;;;;;;;;;;21.19;26.56;94464.91;1044746;28;1901;-64
2021/12/04 02:48:57;;;;;;;;;;;;;;;21.18;26.44;94461.53;1041950;28;1856;-64
2021/12/04 02:49:28;;;;;;;;;;;;;;;21.18;26.36;94464.16;1042074;28;1857;-66
2021/12/04 02:49:58;;;;;;;;;;;;;;;21.19;26.41;94462.28;1045297;28;1127;-64
2021/12/04 02:50:29;;;;;;;;;;;;;;;21.18;26.16;94463.38;1042346;28;1171;-64
2021/12/04 02:50:59;;;;;;;;;;;;;;;21.17;26.62;94467.88;1045259;28;1233;-64
2021/12/04 02:51:30;;;;;;;;;;;;;;;21.18;26.27;94463.38;1045252;28;1174;-64
2021/12/04 02:52:02;;;;;;;;;;;;;;;21.18;26.09;94463.38;1045132;28;1257;-63
2021/12/04 02:52:32;;;;;;;;;;;;;;;21.17;26.16;94457.31;1045211;28;1162;-64
2021/12/04 02:53:02;;;;;;;;;;;;;;;21.17;26.49;94467.09;1043991;28;1932;-63
2021/12/04 02:53:33;;;;;;;;;;;;;;;21.17;26.21;94464.44;1041176;28;1221;-63
2021/12/04 02:54:04;;;;;;;;;;;;;;;21.17;26.56;94461.81;1040284;28;1904;-64
2021/12/04 02:54:35;;;;;;;;;;;;;;;21.17;26.23;94459.19;1039425;28;1186;-63
2021/12/04 02:55:06;;;;;;;;;;;;;;;21.16;25.52;94466.31;1037276;28;1054;-64
2021/12/04 02:55:36;;;;;;;;;;;;;;;21.14;26.42;94463.22;1032985;28;1132;-64
2021/12/04 02:56:07;;;;;;;;;;;;;;;21.16;26.51;94465.53;1033158;28;1086;-64
2021/12/04 02:56:37;;;;;;;;;;;;;;;21.15;26.13;94464.75;1037168;28;1293;-64
2021/12/04 02:57:08;;;;;;;;;;;;;;;21.16;26.53;94462.91;1040699;28;1751;-63
2021/12/04 02:57:44;;;;;;;;;;;;;;;21.15;25.90;94461.34;1039797;28;1293;-64